Time;durP1;ratioP1;P1;durP2;ratioP2;P2;SDS_P1;SDS_P2;PMS_P1;PMS_P2;Temp;Humidity;BMP_temperature;BMP_pressure;BME280_temperature;BME280_humidity;BME280_pressure;Samples;Min_cycle;Max_cycle;Signal;HPM_P1;HPM_P2
2023/12/16 00:03:49;;;;;;;;;;;7.70;99.90;;;;;;6752128;88;20552;-81
2023/12/16 00:13:50;;;;;;;;;;;7.70;99.90;;;;;;6751940;88;20049;-81
2023/12/16 00:23:50;;;;;;;;;;;7.80;99.90;;;;;;6750857;88;20192;-81
2023/12/16 00:33:51;;;;;;;;;;;7.70;99.90;;;;;;6752771;88;20034;-82
2023/12/16 00:43:51;;;;;;;;;;;7.70;99.90;;;;;;6748304;88;20083;-82
2023/12/16 00:53:51;;;;;;;;;;;7.80;99.90;;;;;;6752443;88;20078;-84
2023/12/16 01:03:52;;;;;;;;;;;7.70;99.90;;;;;;6753513;88;20074;-82
2023/12/16 01:13:52;;;;;;;;;;;7.80;99.90;;;;;;6748670;88;20700;-82
2023/12/16 01:23:54;;;;;;;;;;;7.70;99.90;;;;;;6754247;88;20111;-82
2023/12/16 01:33:54;;;;;;;;;;;7.80;99.90;;;;;;6759384;88;20187;-82
2023/12/16 01:43:54;;;;;;;;;;;7.70;99.90;;;;;;6751709;88;20076;-82
2023/12/16 01:53:55;;;;;;;;;;;7.80;99.90;;;;;;6748158;88;20061;-83
2023/12/16 02:03:56;;;;;;;;;;;7.80;99.90;;;;;;6749893;88;20083;-82
2023/12/16 02:13:56;;;;;;;;;;;7.80;99.90;;;;;;6750585;88;20071;-82
2023/12/16 02:23:57;;;;;;;;;;;7.80;99.90;;;;;;6747729;88;20075;-82
2023/12/16 02:33:57;;;;;;;;;;;7.80;99.90;;;;;;6750856;88;20076;-82
2023/12/16 02:43:58;;;;;;;;;;;7.60;99.90;;;;;;6749494;88;20054;-82
2023/12/16 02:53:58;;;;;;;;;;;7.70;99.90;;;;;;6753556;88;20066;-82
2023/12/16 03:03:58;;;;;;;;;;;7.70;99.90;;;;;;6751413;88;20056;-82
2023/12/16 03:13:59;;;;;;;;;;;7.70;99.90;;;;;;6747031;88;20071;-81
2023/12/16 03:23:59;;;;;;;;;;;7.60;99.90;;;;;;6745817;88;20132;-82
2023/12/16 03:34:00;;;;;;;;;;;7.60;99.90;;;;;;6749188;88;20571;-81
2023/12/16 03:44:00;;;;;;;;;;;7.60;99.90;;;;;;6751746;88;20057;-81
2023/12/16 03:54:01;;;;;;;;;;;7.60;99.90;;;;;;6733015;88;20042;-82
2023/12/16 04:04:01;;;;;;;;;;;7.60;99.90;;;;;;6738244;88;20117;-82
2023/12/16 04:14:02;;;;;;;;;;;7.60;99.90;;;;;;6734960;88;20063;-82
2023/12/16 04:24:02;;;;;;;;;;;7.50;99.90;;;;;;6732814;88;20054;-82
2023/12/16 04:34:03;;;;;;;;;;;7.60;99.90;;;;;;6734194;88;20073;-82
2023/12/16 04:44:03;;;;;;;;;;;7.60;99.90;;;;;;6737143;88;20058;-82
2023/12/16 04:54:04;;;;;;;;;;;7.60;99.90;;;;;;6740356;88;20591;-82
2023/12/16 05:04:25;;;;;;;;;;;7.50;99.90;;;;;;6733749;77;20068;-80
2023/12/16 05:14:25;;;;;;;;;;;7.50;99.90;;;;;;6701184;88;20140;-80
2023/12/16 05:24:26;;;;;;;;;;;7.40;99.90;;;;;;6700910;88;20066;-80
2023/12/16 05:34:26;;;;;;;;;;;7.40;99.90;;;;;;6702276;88;20081;-79
2023/12/16 05:44:27;;;;;;;;;;;7.40;99.90;;;;;;6694752;88;20048;-79
2023/12/16 05:54:27;;;;;;;;;;;7.50;99.90;;;;;;6702186;88;20102;-79
2023/12/16 06:04:28;;;;;;;;;;;7.40;99.90;;;;;;6706525;88;20079;-78
2023/12/16 06:14:28;;;;;;;;;;;7.40;99.90;;;;;;6704749;88;22062;-77
2023/12/16 06:24:29;;;;;;;;;;;7.40;99.90;;;;;;6689667;88;20067;-79
2023/12/16 06:34:29;;;;;;;;;;;7.40;99.90;;;;;;6706864;88;20055;-77
2023/12/16 06:44:30;;;;;;;;;;;7.40;99.90;;;;;;6718208;88;20118;-78
2023/12/16 06:54:30;;;;;;;;;;;7.40;99.90;;;;;;6712303;88;20717;-78
2023/12/16 07:04:30;;;;;;;;;;;7.40;99.90;;;;;;6707448;88;20135;-78
2023/12/16 07:14:33;;;;;;;;;;;7.30;99.90;;;;;;6715439;88;20661;-77
2023/12/16 07:24:33;;;;;;;;;;;7.50;99.90;;;;;;6721069;88;20066;-80
2023/12/16 07:34:33;;;;;;;;;;;7.40;99.90;;;;;;6729663;88;20070;-79
2023/12/16 07:44:34;;;;;;;;;;;7.40;99.90;;;;;;6711641;88;20554;-79
2023/12/16 07:54:34;;;;;;;;;;;7.50;99.90;;;;;;6704518;88;20087;-79
2023/12/16 08:04:35;;;;;;;;;;;7.50;99.90;;;;;;6707671;88;20051;-79
2023/12/16 08:14:35;;;;;;;;;;;7.50;99.90;;;;;;6699789;88;20066;-78
2023/12/16 08:24:36;;;;;;;;;;;7.60;99.90;;;;;;6703803;88;20148;-78
2023/12/16 08:34:36;;;;;;;;;;;7.60;99.90;;;;;;6698145;88;20055;-80
2023/12/16 08:44:37;;;;;;;;;;;7.80;99.90;;;;;;6700619;88;20070;-80
2023/12/16 08:54:38;;;;;;;;;;;7.70;99.90;;;;;;6705030;88;20084;-79
2023/12/16 09:04:39;;;;;;;;;;;8.10;99.90;;;;;;6702524;88;20829;-79
2023/12/16 09:14:40;;;;;;;;;;;8.10;99.90;;;;;;6702458;88;20139;-78
2023/12/16 09:24:40;;;;;;;;;;;8.30;99.90;;;;;;6707912;88;20079;-77
2023/12/16 09:34:42;;;;;;;;;;;8.70;99.90;;;;;;6701777;88;20064;-77
2023/12/16 09:44:47;;;;;;;;;;;9.50;99.90;;;;;;6703589;88;20102;-78
2023/12/16 09:54:48;;;;;;;;;;;9.40;99.90;;;;;;6700985;88;20532;-78
2023/12/16 10:04:51;;;;;;;;;;;9.90;99.90;;;;;;6704470;88;20073;-78
2023/12/16 10:14:51;;;;;;;;;;;10.00;99.90;;;;;;6707386;88;20079;-80
2023/12/16 10:24:52;;;;;;;;;;;10.40;99.90;;;;;;6712103;88;20632;-79
2023/12/16 10:34:53;;;;;;;;;;;10.60;99.90;;;;;;6708093;88;20099;-79
2023/12/16 10:44:53;;;;;;;;;;;11.00;99.90;;;;;;6711312;88;20120;-79
2023/12/16 10:54:58;;;;;;;;;;;11.50;99.90;;;;;;6711276;88;20850;-79
2023/12/16 11:15:03;;;;;;;;;;;10.60;99.90;;;;;;6711891;88;20087;-81
2023/12/16 11:25:15;;;;;;;;;;;10.70;99.90;;;;;;6710123;88;20498;-80
2023/12/16 11:35:35;;;;;;;;;;;11.20;99.90;;;;;;6708778;88;20122;-79
2023/12/16 11:45:40;;;;;;;;;;;11.80;99.90;;;;;;6706103;88;20079;-80
2023/12/16 11:55:40;;;;;;;;;;;12.40;99.90;;;;;;6704983;88;20086;-79
2023/12/16 12:05:41;;;;;;;;;;;12.60;99.90;;;;;;6701522;88;20075;-79
2023/12/16 12:15:41;;;;;;;;;;;12.50;99.90;;;;;;6712621;88;20078;-79
2023/12/16 12:25:42;;;;;;;;;;;12.20;99.90;;;;;;6707950;88;20135;-80
2023/12/16 12:35:42;;;;;;;;;;;11.80;99.90;;;;;;6692684;88;20087;-80
2023/12/16 12:45:44;;;;;;;;;;;11.30;99.90;;;;;;6694144;88;20114;-80
2023/12/16 12:55:44;;;;;;;;;;;11.20;99.90;;;;;;6702260;88;20125;-81
2023/12/16 13:05:45;;;;;;;;;;;11.30;99.90;;;;;;6706277;88;20054;-80
2023/12/16 13:15:47;;;;;;;;;;;11.20;99.90;;;;;;6700438;88;20086;-80
2023/12/16 13:25:49;;;;;;;;;;;11.20;99.90;;;;;;6724308;88;20129;-80
2023/12/16 13:35:49;;;;;;;;;;;11.10;99.90;;;;;;6715885;88;20080;-80
2023/12/16 13:45:50;;;;;;;;;;;11.10;99.90;;;;;;6715297;88;20501;-80
2023/12/16 13:55:50;;;;;;;;;;;11.10;99.90;;;;;;6705944;88;20072;-80
2023/12/16 14:05:51;;;;;;;;;;;10.90;99.90;;;;;;6701813;88;20064;-80
2023/12/16 14:15:51;;;;;;;;;;;10.80;99.90;;;;;;6709724;88;20083;-82
2023/12/16 14:25:52;;;;;;;;;;;10.70;99.90;;;;;;6698684;88;20108;-80
2023/12/16 14:35:52;;;;;;;;;;;10.60;99.90;;;;;;6713478;88;20071;-80
2023/12/16 14:45:53;;;;;;;;;;;10.50;99.90;;;;;;6713472;88;20925;-81
2023/12/16 14:55:54;;;;;;;;;;;10.40;99.90;;;;;;6699231;88;20259;-82
2023/12/16 15:05:55;;;;;;;;;;;10.40;99.90;;;;;;6700308;88;20060;-80
2023/12/16 15:15:55;;;;;;;;;;;10.10;99.90;;;;;;6704374;88;20192;-80
2023/12/16 15:25:56;;;;;;;;;;;9.90;99.90;;;;;;6711568;88;20081;-80
2023/12/16 15:35:56;;;;;;;;;;;9.80;99.90;;;;;;6720640;88;20528;-79
2023/12/16 15:45:57;;;;;;;;;;;9.70;99.90;;;;;;6728453;88;20145;-79
2023/12/16 15:55:57;;;;;;;;;;;9.70;99.90;;;;;;6724507;88;20498;-79
2023/12/16 16:05:58;;;;;;;;;;;9.70;99.90;;;;;;6727794;88;20055;-80
2023/12/16 16:15:58;;;;;;;;;;;9.70;99.90;;;;;;6709304;88;20127;-80
2023/12/16 16:25:58;;;;;;;;;;;9.60;99.90;;;;;;6712335;88;20059;-78
2023/12/16 16:36:01;;;;;;;;;;;9.50;99.90;;;;;;6712844;88;20081;-80
2023/12/16 16:46:01;;;;;;;;;;;9.50;99.90;;;;;;6709480;88;20212;-79
2023/12/16 16:56:03;;;;;;;;;;;9.50;99.90;;;;;;6713460;88;20059;-80
2023/12/16 17:06:04;;;;;;;;;;;9.40;99.90;;;;;;6708730;88;20096;-80
2023/12/16 17:16:07;;;;;;;;;;;9.40;99.90;;;;;;6728834;78;20066;-78
2023/12/16 17:26:08;;;;;;;;;;;9.30;99.90;;;;;;6724462;88;20059;-78
2023/12/16 17:36:09;;;;;;;;;;;9.30;99.90;;;;;;6718192;88;20133;-78
2023/12/16 17:46:10;;;;;;;;;;;9.20;99.90;;;;;;6716791;88;20056;-78
2023/12/16 17:56:10;;;;;;;;;;;9.30;99.90;;;;;;6714178;88;20711;-79
2023/12/16 18:06:10;;;;;;;;;;;9.10;99.90;;;;;;6725510;88;20090;-78
2023/12/16 18:16:11;;;;;;;;;;;9.20;99.90;;;;;;6721486;88;20502;-78
2023/12/16 18:26:12;;;;;;;;;;;9.00;99.90;;;;;;6707743;88;20056;-78
2023/12/16 18:36:13;;;;;;;;;;;9.00;99.90;;;;;;6715633;88;20070;-79
2023/12/16 18:46:13;;;;;;;;;;;8.90;99.90;;;;;;6724902;88;20050;-78
2023/12/16 18:56:14;;;;;;;;;;;8.90;99.90;;;;;;6706881;88;20083;-79
2023/12/16 19:06:14;;;;;;;;;;;8.80;99.90;;;;;;6721183;88;20507;-78
2023/12/16 19:16:15;;;;;;;;;;;8.80;99.90;;;;;;6713231;88;20074;-79
2023/12/16 19:26:15;;;;;;;;;;;8.80;99.90;;;;;;6731174;88;20074;-79
2023/12/16 19:36:16;;;;;;;;;;;8.70;99.90;;;;;;6719979;88;20492;-80
2023/12/16 19:46:16;;;;;;;;;;;8.80;99.90;;;;;;6723246;88;20081;-79
2023/12/16 19:56:17;;;;;;;;;;;8.70;99.90;;;;;;6703891;88;20640;-80
2023/12/16 20:06:18;;;;;;;;;;;8.70;99.90;;;;;;6715535;88;20182;-80
2023/12/16 20:16:19;;;;;;;;;;;8.50;99.90;;;;;;6723793;88;20574;-78
2023/12/16 20:26:20;;;;;;;;;;;8.80;99.90;;;;;;6716842;88;20055;-78
2023/12/16 20:36:21;;;;;;;;;;;8.60;99.90;;;;;;6727474;88;20111;-79
2023/12/16 20:46:22;;;;;;;;;;;8.60;99.90;;;;;;6709609;88;20592;-80
2023/12/16 20:56:23;;;;;;;;;;;8.60;99.90;;;;;;6710968;88;20071;-80
2023/12/16 21:06:23;;;;;;;;;;;8.70;99.90;;;;;;6709804;88;20135;-80
2023/12/16 21:16:23;;;;;;;;;;;8.60;99.90;;;;;;6708529;88;20055;-80
2023/12/16 21:26:24;;;;;;;;;;;8.60;99.90;;;;;;6709612;88;20483;-80
2023/12/16 21:36:26;;;;;;;;;;;8.60;99.90;;;;;;6706074;88;20161;-79
2023/12/16 21:46:27;;;;;;;;;;;8.80;99.90;;;;;;6717519;88;20106;-79
2023/12/16 21:56:28;;;;;;;;;;;8.80;99.90;;;;;;6708706;88;20196;-78
2023/12/16 22:06:29;;;;;;;;;;;8.70;99.90;;;;;;6710697;88;20051;-78
2023/12/16 22:16:29;;;;;;;;;;;8.70;99.90;;;;;;6720165;88;20566;-78
2023/12/16 22:26:30;;;;;;;;;;;8.70;99.90;;;;;;6713323;88;20287;-80
2023/12/16 22:36:30;;;;;;;;;;;8.70;99.90;;;;;;6708615;88;20558;-79
2023/12/16 22:46:31;;;;;;;;;;;8.70;99.90;;;;;;6718881;88;20058;-79
2023/12/16 22:56:32;;;;;;;;;;;8.70;99.90;;;;;;6714889;88;20055;-79
2023/12/16 23:06:32;;;;;;;;;;;8.70;99.90;;;;;;6722539;88;20079;-78
2023/12/16 23:16:33;;;;;;;;;;;8.70;99.90;;;;;;6714318;88;20096;-79
2023/12/16 23:26:33;;;;;;;;;;;8.70;99.90;;;;;;6709923;88;20080;-79
2023/12/16 23:36:34;;;;;;;;;;;8.60;99.90;;;;;;6724072;88;20058;-79
2023/12/16 23:46:35;;;;;;;;;;;8.50;99.90;;;;;;6727741;88;20096;-79
2023/12/16 23:56:36;;;;;;;;;;;8.50;99.90;;;;;;6721121;88;20058;-78
